< < Back
Terminal Aerodrome Forecast


Current Version              Previous Versions:   1  2  3  4  5  6  7  8  9  

Terminal Aerodrome Forecast

245
FTUS42 KCHS 271124
TAFCHS
TAF
KCHS 271124Z 2712/2812 16007KT P6SM FEW030 SCT150
     FM271500 17009KT P6SM SCT040
     FM280030 VRB03KT P6SM FEW025=

Latest METAR

910
SAUS80 KWBC 280200 RRA
MTRCHS
METAR KCHS 280156Z 15005KT 10SM SCT250 23/19 A3021 RMK AO2 SLP229
T02330189


USA.gov is the U.S. government's official web portal to all federal, state and local government web resources and services.